createdAt,value
2019-04-05T00:01:48.079Z,67.70
2019-04-05T00:04:21.905Z,67.62
2019-04-05T00:06:53.049Z,68.16
2019-04-05T00:09:24.166Z,67.89
2019-04-05T00:11:58.317Z,67.74
2019-04-05T00:14:30.592Z,67.81
2019-04-05T00:17:02.290Z,68.18
2019-04-05T00:19:34.382Z,68.01
2019-04-05T00:22:10.123Z,67.80
2019-04-05T00:24:40.476Z,68.10
2019-04-05T00:27:11.476Z,68.12
2019-04-05T00:29:42.366Z,68.67
2019-04-05T00:32:13.469Z,67.90
2019-04-05T00:34:44.553Z,68.71
2019-04-05T00:37:16.233Z,68.71
2019-04-05T00:39:47.348Z,68.61
2019-04-05T00:42:18.404Z,68.83
2019-04-05T00:44:49.496Z,68.72
2019-04-05T00:47:20.509Z,68.28
2019-04-05T00:49:51.493Z,68.75
2019-04-05T00:52:22.598Z,69.18
2019-04-05T00:54:53.905Z,69.25
2019-04-05T00:57:24.871Z,69.82
2019-04-05T00:59:56.325Z,69.70
2019-04-05T01:02:33.524Z,70.27
2019-04-05T01:05:06.307Z,69.89
2019-04-05T01:07:37.584Z,69.80
2019-04-05T01:10:09.551Z,69.63
2019-04-05T01:12:42.401Z,69.58
2019-04-05T01:15:16.614Z,70.14
2019-04-05T01:17:47.679Z,69.84
2019-04-05T01:20:20.015Z,70.38
2019-04-05T01:22:51.356Z,69.94
2019-04-05T01:25:25.532Z,70.19
2019-04-05T01:27:56.637Z,69.99
2019-04-05T01:30:27.731Z,70.06
2019-04-05T01:32:59.446Z,70.04
2019-04-05T01:35:31.489Z,69.96
2019-04-05T01:38:02.636Z,69.55
2019-04-05T01:40:36.306Z,70.00
2019-04-05T01:43:08.274Z,70.60
2019-04-05T01:45:52.910Z,70.61
2019-04-05T01:48:14.736Z,70.60
2019-04-05T01:50:47.059Z,70.75
2019-04-05T01:53:18.096Z,71.25
2019-04-05T01:55:53.467Z,70.91
2019-04-05T01:58:25.068Z,70.72
2019-04-05T02:00:56.190Z,71.21
2019-04-05T02:03:27.711Z,71.24
2019-04-05T02:06:01.455Z,70.72
2019-04-05T02:08:32.995Z,70.98
2019-04-05T02:11:04.630Z,71.35
2019-04-05T02:13:36.095Z,71.36
2019-04-05T02:16:07.361Z,71.37
2019-04-05T02:18:38.244Z,71.27
2019-04-05T02:21:09.490Z,71.43
2019-04-05T02:23:40.511Z,71.01
2019-04-05T02:26:11.934Z,70.77
2019-04-05T02:28:44.815Z,71.68
2019-04-05T02:31:15.991Z,71.71
2019-04-05T02:33:47.129Z,71.26
2019-04-05T02:36:18.148Z,71.12
2019-04-05T02:38:49.239Z,71.28
2019-04-05T02:41:21.590Z,71.15
2019-04-05T02:43:56.707Z,71.21
2019-04-05T02:46:30.757Z,71.29
2019-04-05T02:49:05.232Z,71.48
2019-04-05T02:51:38.770Z,71.51
2019-04-05T02:54:10.695Z,71.55
2019-04-05T02:56:43.022Z,71.68
2019-04-05T02:59:15.168Z,72.56
2019-04-05T03:01:50.712Z,72.97
2019-04-05T03:04:26.516Z,72.14
2019-04-05T03:07:05.876Z,72.22
2019-04-05T03:09:42.535Z,71.99
2019-04-05T03:12:19.363Z,71.95
2019-04-05T03:14:53.027Z,71.70
2019-04-05T03:17:26.585Z,72.04
2019-04-05T03:20:11.762Z,71.64
2019-04-05T03:22:42.777Z,71.74
2019-04-05T03:25:14.848Z,71.65
2019-04-05T03:27:47.155Z,71.86
2019-04-05T03:30:18.650Z,71.87
2019-04-05T03:32:53.170Z,72.02
2019-04-05T03:35:26.003Z,72.72
2019-04-05T03:37:57.196Z,72.65
2019-04-05T03:40:29.056Z,72.67
2019-04-05T03:43:00.620Z,72.57
2019-04-05T03:45:32.461Z,72.82
2019-04-05T03:48:03.869Z,73.20
2019-04-05T03:50:35.030Z,73.33
2019-04-05T03:53:06.520Z,72.82
2019-04-05T03:55:37.889Z,72.61
2019-04-05T03:58:09.259Z,72.81
2019-04-05T04:00:40.453Z,73.44
2019-04-05T04:03:11.912Z,73.48
2019-04-05T04:05:43.270Z,73.39
2019-04-05T04:08:15.803Z,72.87
2019-04-05T04:10:50.847Z,73.31
2019-04-05T04:13:22.650Z,73.34
2019-04-05T04:16:11.054Z,73.45
2019-04-05T04:18:44.695Z,72.64
2019-04-05T04:21:35.017Z,73.42
2019-04-05T04:24:07.246Z,73.19
2019-04-05T04:26:38.642Z,73.53
2019-04-05T04:29:12.864Z,74.05
2019-04-05T04:31:45.097Z,74.01
2019-04-05T04:34:16.466Z,74.09
2019-04-05T04:37:12.065Z,73.83
2019-04-05T04:39:43.996Z,73.55
2019-04-05T04:42:16.724Z,74.79
2019-04-05T04:44:54.053Z,74.89
2019-04-05T04:47:27.426Z,74.55
2019-04-05T04:50:02.455Z,74.95
2019-04-05T04:52:35.167Z,74.53
2019-04-05T04:55:08.004Z,75.28
2019-04-05T04:57:39.251Z,74.54
2019-04-05T05:00:11.523Z,74.66
2019-04-05T05:02:43.010Z,75.20
2019-04-05T05:05:18.370Z,75.38
2019-04-05T05:07:49.747Z,75.17
2019-04-05T05:10:22.560Z,75.03
2019-04-05T05:12:54.307Z,74.88
2019-04-05T05:15:27.376Z,75.32
2019-04-05T05:18:02.102Z,76.14
2019-04-05T05:20:34.194Z,75.72
2019-04-05T05:23:05.357Z,75.56
2019-04-05T05:25:37.464Z,76.12
2019-04-05T05:28:11.106Z,76.34
2019-04-05T05:30:42.002Z,76.69
2019-04-05T05:33:13.314Z,76.58
2019-04-05T05:35:44.451Z,76.54
2019-04-05T05:38:15.477Z,77.04
2019-04-05T05:40:46.753Z,77.05
2019-04-05T05:43:17.872Z,76.74
2019-04-05T05:45:51.712Z,77.25
2019-04-05T05:48:23.429Z,77.10
2019-04-05T05:51:14.711Z,76.91
2019-04-05T05:53:46.299Z,77.27
2019-04-05T05:56:17.393Z,77.16
2019-04-05T05:59:00.214Z,77.75
2019-04-05T06:01:32.196Z,78.67
2019-04-05T06:04:05.249Z,78.66
2019-04-05T06:06:36.925Z,78.82
2019-04-05T06:09:09.891Z,78.55
2019-04-05T06:11:42.676Z,78.97
2019-04-05T06:14:14.957Z,78.59
2019-04-05T06:16:50.400Z,77.61
2019-04-05T06:19:22.034Z,78.19
2019-04-05T06:21:53.016Z,78.12
2019-04-05T06:24:25.923Z,78.05
2019-04-05T06:26:56.939Z,78.27
2019-04-05T06:29:39.501Z,78.71
2019-04-05T06:34:56.750Z,78.94
2019-04-05T06:37:27.287Z,78.53
2019-04-05T06:39:57.759Z,78.39
2019-04-05T06:42:28.120Z,78.59
2019-04-05T06:44:58.658Z,79.61
2019-04-05T06:47:29.047Z,79.44
2019-04-05T06:49:59.523Z,79.34
2019-04-05T06:52:30.001Z,78.69
2019-04-05T06:55:00.553Z,78.90
2019-04-05T06:57:30.899Z,79.43
2019-04-05T07:00:01.292Z,79.60
2019-04-05T07:02:31.741Z,78.70
2019-04-05T07:05:02.140Z,79.00
2019-04-05T07:07:32.634Z,78.02
2019-04-05T07:10:03.075Z,78.56
2019-04-05T07:12:33.536Z,77.49
2019-04-05T07:15:04.016Z,77.41
2019-04-05T07:17:34.659Z,76.89
2019-04-05T07:20:05.651Z,76.28
2019-04-05T07:22:39.437Z,75.77
2019-04-05T07:25:08.746Z,75.19
2019-04-05T07:27:39.209Z,74.68
2019-04-05T07:30:09.885Z,75.33
2019-04-05T07:32:40.211Z,75.01
2019-04-05T07:35:10.829Z,75.04
2019-04-05T07:37:41.360Z,74.48
2019-04-05T07:40:12.115Z,73.81
2019-04-05T07:42:42.536Z,74.87
2019-04-05T07:45:13.414Z,74.99
2019-04-05T07:47:43.874Z,74.15
2019-04-05T07:50:14.555Z,73.51
2019-04-05T07:52:44.960Z,73.90
2019-04-05T07:55:15.552Z,73.81
2019-04-05T07:57:45.939Z,74.29
2019-04-05T08:00:55.127Z,74.42
2019-04-05T08:03:25.872Z,73.84
2019-04-05T08:05:56.520Z,73.56
2019-04-05T08:09:05.720Z,73.80
2019-04-05T08:11:36.528Z,73.97
2019-04-05T08:14:06.943Z,74.38
2019-04-05T08:16:37.396Z,74.11
2019-04-05T08:19:07.841Z,74.06
2019-04-05T08:21:38.289Z,73.55
2019-04-05T08:24:08.796Z,74.01
2019-04-05T08:26:39.298Z,73.66
2019-04-05T08:29:09.744Z,73.52
2019-04-05T08:31:40.238Z,73.52
2019-04-05T08:34:10.666Z,74.04
2019-04-05T08:36:41.087Z,74.52
2019-04-05T08:39:11.564Z,74.39
2019-04-05T08:41:42.027Z,73.77
2019-04-05T08:44:12.549Z,72.00
2019-04-05T08:46:43.031Z,71.17
2019-04-05T08:49:13.428Z,70.39
2019-04-05T08:51:43.875Z,68.91
2019-04-05T08:54:14.297Z,68.80
2019-04-05T08:56:44.773Z,68.60
2019-04-05T08:59:15.275Z,68.36
2019-04-05T09:01:45.750Z,67.56
2019-04-05T09:04:16.275Z,67.52
2019-04-05T09:06:46.740Z,66.85
2019-04-05T09:09:17.231Z,67.23
2019-04-05T09:11:47.511Z,67.61
2019-04-05T09:14:20.726Z,65.58
2019-04-05T09:16:50.162Z,65.64
2019-04-05T09:19:23.898Z,64.09
2019-04-05T09:21:52.636Z,63.23
2019-04-05T09:24:23.107Z,62.85
2019-04-05T09:26:54.417Z,63.47
2019-04-05T09:29:25.034Z,64.73
2019-04-05T09:31:55.510Z,63.65
2019-04-05T09:34:25.967Z,63.24
2019-04-05T09:36:56.522Z,63.38
2019-04-05T09:39:26.960Z,64.97
2019-04-05T09:41:57.410Z,65.54
2019-04-05T09:44:27.840Z,65.28
2019-04-05T09:46:58.336Z,66.06
2019-04-05T09:49:36.615Z,67.92
2019-04-05T09:52:00.913Z,68.15
2019-04-05T09:54:31.343Z,68.98
2019-04-05T09:57:01.725Z,67.92
2019-04-05T09:59:32.158Z,67.54
2019-04-05T10:02:02.585Z,68.30
2019-04-05T10:04:33.014Z,68.13
2019-04-05T10:07:03.428Z,67.65
2019-04-05T10:09:33.885Z,67.66
2019-04-05T10:12:04.743Z,68.29
2019-04-05T10:14:35.109Z,67.62
2019-04-05T10:17:05.517Z,67.41
2019-04-05T10:19:48.900Z,66.65
2019-04-05T10:22:08.179Z,65.63
2019-04-05T10:24:38.652Z,65.09
2019-04-05T10:27:09.112Z,64.73
2019-04-05T10:29:39.481Z,63.79
2019-04-05T10:32:10.000Z,62.17
2019-04-05T10:34:40.474Z,61.79
2019-04-05T10:37:10.962Z,60.77
2019-04-05T10:39:41.383Z,61.21
2019-04-05T10:42:34.380Z,59.58
2019-04-05T10:45:06.326Z,57.91
2019-04-05T10:47:36.775Z,58.58
2019-04-05T10:50:09.780Z,58.53
2019-04-05T10:52:40.255Z,58.71
2019-04-05T10:55:11.396Z,58.14
2019-04-05T10:57:41.885Z,58.02
2019-04-05T11:00:16.345Z,57.35
2019-04-05T11:02:46.731Z,57.18
2019-04-05T11:05:17.357Z,56.77
2019-04-05T11:07:47.726Z,57.58
2019-04-05T11:10:18.444Z,56.83
2019-04-05T11:12:50.156Z,56.67
2019-04-05T11:15:20.821Z,56.74
2019-04-05T11:17:51.282Z,57.05
2019-04-05T11:20:22.320Z,56.16
2019-04-05T11:22:53.173Z,55.13
2019-04-05T11:25:23.621Z,54.80
2019-04-05T11:27:54.086Z,55.14
2019-04-05T11:30:45.684Z,55.02
2019-04-05T11:33:19.365Z,54.52
2019-04-05T11:35:48.311Z,53.73
2019-04-05T11:38:19.742Z,53.24
2019-04-05T11:40:50.481Z,52.42
2019-04-05T11:43:21.999Z,53.11
2019-04-05T11:45:52.879Z,52.34
2019-04-05T11:48:23.429Z,51.52
2019-04-05T11:50:53.891Z,50.99
2019-04-05T11:53:24.280Z,51.26
2019-04-05T11:55:54.703Z,51.62
2019-04-05T11:58:25.229Z,52.50
2019-04-05T12:01:00.138Z,52.46
2019-04-05T12:03:30.837Z,51.39
2019-04-05T12:06:01.362Z,51.71
2019-04-05T12:08:31.976Z,51.10
2019-04-05T12:11:02.812Z,52.47
2019-04-05T12:13:33.337Z,52.30
2019-04-05T12:16:06.157Z,50.77
2019-04-05T12:18:36.004Z,51.53
2019-04-05T12:21:06.548Z,49.89
2019-04-05T12:23:37.013Z,50.78
2019-04-05T12:26:07.514Z,51.10
2019-04-05T12:28:37.937Z,51.28
2019-04-05T12:31:08.460Z,51.48
2019-04-05T12:33:38.995Z,51.67
2019-04-05T12:36:09.420Z,51.11
2019-04-05T12:38:39.829Z,50.52
2019-04-05T12:41:10.966Z,49.52
2019-04-05T12:43:44.636Z,51.56
2019-04-05T12:46:15.920Z,52.05
2019-04-05T12:48:46.548Z,53.32
2019-04-05T12:51:17.022Z,53.48
2019-04-05T12:53:47.580Z,53.83
2019-04-05T12:56:18.064Z,55.48
2019-04-05T12:58:48.418Z,54.81
2019-04-05T13:01:18.820Z,55.33
2019-04-05T13:03:51.105Z,54.97
2019-04-05T13:06:21.862Z,54.94
2019-04-05T13:08:53.710Z,55.32
2019-04-05T13:11:26.670Z,54.40
2019-04-05T13:13:57.253Z,53.82
2019-04-05T13:16:27.764Z,54.17
2019-04-05T13:19:00.594Z,54.25
2019-04-05T13:21:33.018Z,55.53
2019-04-05T13:24:04.273Z,55.30
2019-04-05T13:26:36.784Z,55.33
2019-04-05T13:29:07.058Z,53.96
2019-04-05T13:31:37.542Z,52.54
2019-04-05T13:34:07.914Z,51.33
2019-04-05T13:36:38.389Z,51.72
2019-04-05T13:39:09.893Z,51.15
2019-04-05T13:41:40.324Z,52.22
2019-04-05T13:44:10.861Z,53.72
2019-04-05T13:46:42.885Z,52.92
2019-04-05T13:49:24.295Z,53.41
2019-04-05T13:51:54.631Z,52.56
2019-04-05T13:54:25.050Z,52.43
2019-04-05T13:56:55.615Z,52.68
2019-04-05T13:59:26.026Z,52.98
2019-04-05T14:02:05.932Z,52.84
2019-04-05T14:04:29.811Z,52.51
2019-04-05T14:07:00.312Z,52.94
2019-04-05T14:09:31.702Z,53.14
2019-04-05T14:12:02.226Z,53.39
2019-04-05T14:14:32.616Z,55.05
2019-04-05T14:17:03.064Z,55.03
2019-04-05T14:19:33.538Z,54.28
2019-04-05T14:22:08.698Z,54.76
2019-04-05T14:24:39.336Z,55.12
2019-04-05T14:27:10.044Z,55.92
2019-04-05T14:29:40.556Z,55.12
2019-04-05T14:32:20.395Z,55.45
2019-04-05T14:34:43.255Z,57.05
2019-04-05T14:37:13.725Z,57.25
2019-04-05T14:39:44.084Z,56.48
2019-04-05T14:42:15.524Z,56.58
2019-04-05T14:44:46.131Z,54.97
2019-04-05T14:47:16.451Z,55.58
2019-04-05T14:49:46.809Z,56.02
2019-04-05T14:52:17.396Z,57.44
2019-04-05T14:54:47.811Z,57.03
2019-04-05T14:57:18.175Z,57.49
2019-04-05T14:59:48.652Z,56.72
2019-04-05T15:02:19.143Z,56.65
2019-04-05T15:04:49.676Z,56.63
2019-04-05T15:07:20.847Z,56.55
2019-04-05T15:09:54.798Z,56.31
2019-04-05T15:12:23.960Z,55.12
2019-04-05T15:14:54.459Z,55.10
2019-04-05T15:17:24.846Z,55.12
2019-04-05T15:19:55.295Z,55.52
2019-04-05T15:22:27.674Z,55.61
2019-04-05T15:24:57.994Z,55.77
2019-04-05T15:27:28.429Z,55.93
2019-04-05T15:29:58.886Z,55.52
2019-04-05T15:32:30.412Z,55.83
2019-04-05T15:35:00.738Z,55.30
2019-04-05T15:37:32.481Z,54.94
2019-04-05T15:40:03.201Z,55.17
2019-04-05T15:42:33.519Z,55.86
2019-04-05T15:45:04.120Z,56.02
2019-04-05T15:47:34.626Z,56.40
2019-04-05T15:50:06.050Z,55.33
2019-04-05T15:52:36.530Z,55.99
2019-04-05T15:55:07.849Z,56.03
2019-04-05T15:57:39.524Z,55.89
2019-04-05T16:00:14.090Z,55.55
2019-04-05T16:02:44.458Z,55.93
2019-04-05T16:05:15.605Z,56.81
2019-04-05T16:07:46.051Z,56.52
2019-04-05T16:10:16.808Z,56.58
2019-04-05T16:12:47.404Z,57.23
2019-04-05T16:15:17.851Z,56.08
2019-04-05T16:17:48.332Z,56.51
2019-04-05T16:20:18.950Z,57.41
2019-04-05T16:22:49.291Z,57.97
2019-04-05T16:25:19.840Z,58.50
2019-04-05T16:27:50.339Z,58.52
2019-04-05T16:30:20.765Z,59.25
2019-04-05T16:32:51.237Z,59.86
2019-04-05T16:35:21.683Z,60.73
2019-04-05T16:37:52.114Z,60.62
2019-04-05T16:40:22.679Z,60.70
2019-04-05T16:43:02.347Z,61.60
2019-04-05T16:45:25.340Z,62.00
2019-04-05T16:47:55.761Z,61.53
2019-04-05T16:50:26.189Z,61.25
2019-04-05T16:52:56.659Z,61.57
2019-04-05T16:55:27.007Z,62.22
2019-04-05T16:57:57.397Z,62.06
2019-04-05T17:00:27.841Z,62.75
2019-04-05T17:02:58.285Z,63.47
2019-04-05T17:05:28.798Z,63.55
2019-04-05T17:07:59.228Z,63.04
2019-04-05T17:10:29.561Z,63.73
2019-04-05T17:13:00.053Z,63.78
2019-04-05T17:15:30.567Z,63.79
2019-04-05T17:18:01.007Z,63.98
2019-04-05T17:20:31.472Z,64.13
2019-04-05T17:23:01.929Z,64.53
2019-04-05T17:25:32.449Z,64.72
2019-04-05T17:28:02.888Z,65.10
2019-04-05T17:30:36.097Z,65.41
2019-04-05T17:33:05.256Z,65.77
2019-04-05T17:35:35.720Z,65.73
2019-04-05T17:38:06.106Z,66.31
2019-04-05T17:40:36.574Z,66.47
2019-04-05T17:43:06.941Z,67.22
2019-04-05T17:45:37.471Z,67.53
2019-04-05T17:48:07.940Z,67.65
2019-04-05T17:50:38.639Z,67.83
2019-04-05T17:53:13.431Z,68.41
2019-04-05T17:55:41.357Z,68.32
2019-04-05T17:58:11.911Z,68.61
2019-04-05T18:00:42.963Z,69.81
2019-04-05T18:03:13.416Z,70.23
2019-04-05T18:05:43.920Z,72.11
2019-04-05T18:08:14.314Z,72.92
2019-04-05T18:10:44.748Z,73.96
2019-04-05T18:13:15.149Z,73.94
2019-04-05T18:15:52.419Z,74.53
2019-04-05T18:18:17.887Z,73.61
2019-04-05T18:20:48.342Z,73.21
2019-04-05T18:23:24.819Z,72.65
2019-04-05T18:25:50.993Z,72.83
2019-04-05T18:28:21.418Z,73.53
2019-04-05T18:30:51.747Z,73.83
2019-04-05T18:33:22.308Z,73.90
2019-04-05T18:35:52.707Z,73.41
2019-04-05T18:38:23.180Z,73.03
2019-04-05T18:40:53.979Z,73.83
2019-04-05T18:43:24.501Z,74.05
2019-04-05T18:45:54.942Z,74.50
2019-04-05T18:48:25.339Z,74.54
2019-04-05T18:50:55.800Z,74.29
2019-04-05T18:53:37.133Z,74.20
2019-04-05T18:55:58.444Z,74.62
2019-04-05T18:58:28.834Z,75.09
2019-04-05T19:00:59.263Z,74.85
2019-04-05T19:03:29.740Z,74.73
2019-04-05T19:06:02.957Z,75.57
2019-04-05T19:08:39.464Z,75.47
2019-04-05T19:11:05.557Z,75.33
2019-04-05T19:13:35.926Z,75.05
2019-04-05T19:16:06.343Z,75.10
2019-04-05T19:18:36.870Z,74.78
2019-04-05T19:21:07.336Z,74.71
2019-04-05T19:23:49.919Z,74.87
2019-04-05T19:26:09.869Z,74.70
2019-04-05T19:28:40.232Z,74.44
2019-04-05T19:48:56.420Z,74.74
2019-04-05T19:51:26.869Z,74.70
2019-04-05T19:54:01.204Z,74.71
2019-04-05T19:56:29.440Z,74.68
2019-04-05T19:58:59.832Z,74.93
2019-04-05T20:01:30.310Z,75.19
2019-04-05T20:04:00.824Z,75.12
2019-04-05T20:06:31.361Z,75.17
2019-04-05T20:09:02.926Z,75.32
2019-04-05T20:11:33.380Z,74.81
2019-04-05T20:14:03.879Z,74.65
2019-04-05T20:16:34.386Z,75.09
2019-04-05T20:19:04.896Z,75.27
2019-04-05T20:21:35.236Z,75.22
2019-04-05T20:24:13.709Z,75.65
2019-04-05T20:26:37.975Z,75.58
2019-04-05T20:29:08.622Z,75.46
2019-04-05T20:31:39.033Z,74.79
2019-04-05T20:34:09.338Z,75.77
2019-04-05T20:36:39.771Z,75.96
2019-04-05T20:39:10.548Z,76.00
2019-04-05T20:41:40.989Z,76.14
2019-04-05T20:44:11.406Z,76.01
2019-04-05T20:46:41.821Z,75.77
2019-04-05T20:49:12.348Z,75.26
2019-04-05T20:51:42.763Z,75.38
2019-04-05T20:54:13.286Z,75.45
2019-04-05T20:56:43.702Z,75.45
2019-04-05T20:59:14.123Z,75.33
2019-04-05T21:01:44.592Z,75.26
2019-04-05T21:04:15.008Z,75.04
2019-04-05T21:06:45.530Z,74.86
2019-04-05T21:09:15.873Z,74.96
2019-04-05T21:11:46.365Z,75.02
2019-04-05T21:14:16.957Z,74.85
2019-04-05T21:16:47.338Z,74.86
2019-04-05T21:19:17.739Z,74.60
2019-04-05T21:21:48.112Z,74.67
2019-04-05T21:24:18.411Z,74.60
2019-04-05T21:26:48.914Z,74.84
2019-04-05T21:29:19.398Z,74.67
2019-04-05T21:31:49.863Z,74.71
2019-04-05T21:34:20.164Z,75.24
2019-04-05T21:36:50.584Z,75.56
2019-04-05T21:39:21.193Z,75.90
2019-04-05T21:41:51.592Z,75.25
2019-04-05T21:44:22.024Z,75.30
2019-04-05T21:46:52.574Z,75.31
2019-04-05T21:49:23.080Z,75.12
2019-04-05T21:51:53.591Z,75.11
2019-04-05T21:54:24.077Z,75.27
2019-04-05T21:56:54.528Z,75.70
2019-04-05T21:59:24.995Z,75.29
2019-04-05T22:01:55.426Z,74.72
2019-04-05T22:04:25.840Z,74.77
2019-04-05T22:06:56.309Z,74.66
2019-04-05T22:09:27.374Z,74.90
2019-04-05T22:11:57.831Z,74.68
2019-04-05T22:14:28.348Z,74.65
2019-04-05T22:16:58.651Z,75.09
2019-04-05T22:19:29.104Z,74.33
2019-04-05T22:21:59.548Z,74.33
2019-04-05T22:24:29.975Z,74.76
2019-04-05T22:27:00.345Z,74.97
2019-04-05T22:29:30.809Z,75.12
2019-04-05T22:32:01.215Z,75.13
2019-04-05T22:34:31.707Z,74.80
2019-04-05T22:37:02.208Z,74.60
2019-04-05T22:39:32.688Z,74.70
2019-04-05T22:42:03.027Z,74.56
2019-04-05T22:44:39.919Z,74.46
2019-04-05T22:47:05.635Z,74.26
2019-04-05T22:49:35.955Z,74.04
2019-04-05T22:52:06.464Z,74.68
2019-04-05T22:54:36.932Z,74.63
2019-04-05T22:57:07.376Z,74.92
2019-04-05T22:59:37.881Z,74.60
2019-04-05T23:02:08.174Z,75.27
2019-04-05T23:04:38.710Z,74.98
2019-04-05T23:07:09.145Z,74.61
2019-04-05T23:09:39.539Z,75.51
2019-04-05T23:12:10.007Z,75.09
2019-04-05T23:14:40.429Z,75.07
2019-04-05T23:17:10.813Z,75.27
2019-04-05T23:19:41.309Z,76.12
2019-04-05T23:22:11.851Z,75.86
2019-04-05T23:24:42.252Z,75.84
2019-04-05T23:27:12.667Z,75.74
2019-04-05T23:29:43.140Z,75.55
2019-04-05T23:32:13.590Z,76.35
2019-04-05T23:34:43.995Z,76.62
2019-04-05T23:37:14.646Z,76.47
2019-04-05T23:39:45.165Z,77.18
2019-04-05T23:42:15.556Z,77.06
2019-04-05T23:44:45.910Z,76.83
2019-04-05T23:47:16.389Z,76.72
2019-04-05T23:49:46.786Z,76.96
2019-04-05T23:52:17.241Z,78.32
2019-04-05T23:54:47.694Z,78.25
2019-04-05T23:57:18.458Z,78.47
2019-04-05T23:59:48.909Z,78.06
